createdAt,value
2019-03-05T00:02:11.636Z,17.40
2019-03-05T00:07:19.301Z,18.40
2019-03-05T00:12:26.984Z,17.27
2019-03-05T00:17:34.706Z,14.31
2019-03-05T00:22:42.397Z,14.67
2019-03-05T00:27:50.026Z,15.93
2019-03-05T00:32:57.734Z,12.87
2019-03-05T00:38:05.376Z,14.20
2019-03-05T00:43:13.128Z,10.20
2019-03-05T00:48:20.808Z,9.57
2019-03-05T00:53:28.630Z,7.81
2019-03-05T00:58:36.264Z,9.05
2019-03-05T01:03:44.009Z,6.51
2019-03-05T01:08:51.676Z,9.10
2019-03-05T01:13:59.373Z,7.98
2019-03-05T01:19:07.060Z,7.96
2019-03-05T01:24:14.783Z,10.17
2019-03-05T01:29:22.449Z,8.14
2019-03-05T01:34:30.130Z,6.34
2019-03-05T01:39:37.824Z,9.44
2019-03-05T01:44:45.509Z,11.67
2019-03-05T01:49:53.226Z,10.93
2019-03-05T01:55:00.938Z,7.15
2019-03-05T02:00:08.656Z,7.04
2019-03-05T02:05:16.390Z,7.40
2019-03-05T02:10:24.033Z,8.60
2019-03-05T02:15:31.717Z,7.92
2019-03-05T02:20:39.432Z,13.87
2019-03-05T02:25:47.114Z,10.36
2019-03-05T02:30:54.834Z,8.55
2019-03-05T02:36:02.587Z,6.73
2019-03-05T02:41:10.264Z,8.67
2019-03-05T02:46:17.930Z,8.29
2019-03-05T02:51:25.622Z,8.25
2019-03-05T02:56:33.368Z,8.32
2019-03-05T03:01:41.075Z,7.27
2019-03-05T03:06:48.761Z,6.68
2019-03-05T03:11:56.428Z,8.06
2019-03-05T03:17:04.133Z,7.62
2019-03-05T03:22:11.813Z,8.20
2019-03-05T03:27:19.429Z,9.38
2019-03-05T03:32:27.125Z,9.87
2019-03-05T03:37:34.881Z,9.16
2019-03-05T03:42:42.570Z,8.16
2019-03-05T03:47:50.315Z,10.23
2019-03-05T03:52:58.000Z,11.37
2019-03-05T03:58:05.726Z,8.94
2019-03-05T04:03:13.420Z,10.07
2019-03-05T04:08:21.188Z,6.89
2019-03-05T04:13:28.894Z,9.51
2019-03-05T04:18:36.582Z,6.84
2019-03-05T04:23:44.257Z,9.45
2019-03-05T04:28:52.044Z,7.74
2019-03-05T04:33:59.717Z,9.24
2019-03-05T04:39:07.453Z,7.65
2019-03-05T04:44:15.186Z,8.36
2019-03-05T04:49:22.926Z,8.44
2019-03-05T04:54:30.624Z,8.59
2019-03-05T04:59:38.382Z,7.49
2019-03-05T05:04:46.068Z,8.31
2019-03-05T05:09:53.790Z,8.47
2019-03-05T05:15:01.470Z,9.50
2019-03-05T05:20:09.139Z,7.50
2019-03-05T05:25:16.816Z,9.39
2019-03-05T05:30:24.564Z,8.29
2019-03-05T05:35:32.238Z,6.37
2019-03-05T05:40:39.943Z,5.33
2019-03-05T05:45:47.615Z,5.04
2019-03-05T05:50:55.318Z,3.88
2019-03-05T05:56:02.987Z,4.58
2019-03-05T06:01:10.860Z,5.07
2019-03-05T06:06:18.533Z,3.91
2019-03-05T06:11:26.313Z,5.19
2019-03-05T06:16:33.976Z,7.23
2019-03-05T06:21:41.621Z,6.84
2019-03-05T06:26:49.348Z,7.13
2019-03-05T06:31:57.044Z,5.17
2019-03-05T06:37:04.721Z,7.04
2019-03-05T06:42:12.390Z,8.28
2019-03-05T06:47:19.994Z,7.20
2019-03-05T06:52:27.654Z,9.98
2019-03-05T06:57:35.292Z,8.81
2019-03-05T07:02:42.932Z,8.14
2019-03-05T07:07:50.566Z,6.53
2019-03-05T07:12:58.189Z,6.26
2019-03-05T07:18:05.849Z,6.87
2019-03-05T07:23:13.484Z,6.42
2019-03-05T07:28:21.190Z,6.27
2019-03-05T07:33:28.797Z,7.34
2019-03-05T07:38:36.488Z,7.96
2019-03-05T07:43:44.116Z,7.87
2019-03-05T07:48:51.747Z,9.30
2019-03-05T07:53:59.426Z,6.17
2019-03-05T07:59:07.058Z,5.90
2019-03-05T08:04:14.796Z,6.23
2019-03-05T08:09:22.437Z,5.37
2019-03-05T08:14:30.151Z,6.53
2019-03-05T08:19:38.137Z,6.16
2019-03-05T08:24:45.885Z,7.40
2019-03-05T08:29:53.623Z,7.70
2019-03-05T08:35:01.385Z,7.37
2019-03-05T08:40:09.012Z,7.40
2019-03-05T08:45:28.436Z,7.42
2019-03-05T08:50:23.904Z,7.46
2019-03-05T08:55:31.613Z,8.77
2019-03-05T09:00:39.249Z,9.45
2019-03-05T09:05:46.934Z,9.41
2019-03-05T09:10:54.617Z,8.00
2019-03-05T09:16:02.309Z,7.22
2019-03-05T09:21:09.936Z,8.55
2019-03-05T09:26:17.579Z,9.76
2019-03-05T09:31:25.254Z,10.59
2019-03-05T09:36:32.945Z,9.41
2019-03-05T09:41:40.627Z,9.67
2019-03-05T09:46:48.289Z,9.66
2019-03-05T09:51:55.960Z,10.67
2019-03-05T09:57:03.641Z,8.11
2019-03-05T10:02:11.316Z,9.33
2019-03-05T10:07:19.429Z,8.71
2019-03-05T10:12:26.216Z,10.06
2019-03-05T10:17:37.808Z,12.48
2019-03-05T10:22:41.066Z,8.10
2019-03-05T10:27:48.687Z,7.83
2019-03-05T10:32:56.439Z,7.96
2019-03-05T10:38:04.104Z,8.06
2019-03-05T10:43:11.796Z,5.66
2019-03-05T10:48:19.492Z,7.06
2019-03-05T10:53:27.146Z,6.55
2019-03-05T10:58:34.798Z,7.62
2019-03-05T11:03:42.422Z,4.99
2019-03-05T11:08:50.086Z,7.41
2019-03-05T11:13:57.693Z,5.58
2019-03-05T11:19:05.418Z,6.99
2019-03-05T11:24:13.042Z,5.54
2019-03-05T11:29:20.769Z,5.45
2019-03-05T11:34:28.412Z,6.26
2019-03-05T11:39:36.088Z,6.95
2019-03-05T11:44:55.754Z,6.91
2019-03-05T11:49:51.324Z,5.42
2019-03-05T11:54:58.948Z,6.02
2019-03-05T12:00:06.600Z,7.03
2019-03-05T12:05:14.240Z,6.32
2019-03-05T12:10:21.909Z,7.30
2019-03-05T12:15:29.616Z,5.56
2019-03-05T12:20:37.303Z,6.25
2019-03-05T12:25:44.970Z,6.04
2019-03-05T12:30:52.633Z,6.02
2019-03-05T12:36:00.330Z,6.92
2019-03-05T12:41:07.993Z,6.66
2019-03-05T12:46:15.912Z,6.01
2019-03-05T12:51:23.605Z,7.43
2019-03-05T12:56:31.333Z,7.99
2019-03-05T13:01:39.022Z,7.40
2019-03-05T13:06:46.652Z,7.72
2019-03-05T13:11:54.391Z,7.12
2019-03-05T13:17:02.081Z,7.18
2019-03-05T13:22:09.775Z,7.26
2019-03-05T13:27:18.790Z,7.71
2019-03-05T13:32:24.628Z,7.64
2019-03-05T13:37:32.332Z,6.84
2019-03-05T13:42:40.017Z,6.72
2019-03-05T13:47:47.846Z,6.69
2019-03-05T13:52:55.956Z,5.55
2019-03-05T13:58:02.797Z,6.24
2019-03-05T14:03:10.491Z,6.29
2019-03-05T14:08:18.176Z,5.86
2019-03-05T14:13:25.840Z,7.69
2019-03-05T14:18:33.625Z,6.79
2019-03-05T14:23:41.371Z,7.34
2019-03-05T14:28:49.084Z,7.15
2019-03-05T14:33:56.782Z,7.40
2019-03-05T14:39:04.454Z,5.25
2019-03-05T14:44:12.163Z,6.97
2019-03-05T14:49:19.918Z,6.48
2019-03-05T14:54:27.538Z,5.84
2019-03-05T14:59:35.186Z,7.38
2019-03-05T15:04:42.818Z,7.04
2019-03-05T15:09:50.515Z,6.33
2019-03-05T15:14:58.103Z,7.26
2019-03-05T15:20:05.755Z,7.96
2019-03-05T15:25:13.379Z,6.95
2019-03-05T15:30:21.023Z,7.25
2019-03-05T15:35:28.735Z,7.75
2019-03-05T15:40:36.314Z,7.36
2019-03-05T15:45:44.003Z,7.47
2019-03-05T15:50:51.742Z,8.28
2019-03-05T15:55:59.398Z,6.47
2019-03-05T16:01:07.021Z,8.87
2019-03-05T16:06:14.698Z,6.81
2019-03-05T16:11:22.317Z,7.23
2019-03-05T16:16:30.020Z,7.40
2019-03-05T16:21:41.352Z,8.44
2019-03-05T16:26:44.920Z,7.65
2019-03-05T16:31:52.605Z,6.55
2019-03-05T16:37:02.040Z,7.34
2019-03-05T16:42:07.558Z,5.12
2019-03-05T16:47:15.244Z,9.10
2019-03-05T16:52:22.897Z,8.40
2019-03-05T16:57:30.573Z,7.78
2019-03-05T17:02:38.224Z,8.04
2019-03-05T17:07:45.917Z,6.81
2019-03-05T17:12:53.616Z,8.84
2019-03-05T17:18:01.293Z,9.63
2019-03-05T17:23:08.980Z,7.06
2019-03-05T17:28:16.659Z,7.46
2019-03-05T17:33:24.384Z,15.10
2019-03-05T17:38:32.057Z,14.51
2019-03-05T17:43:39.752Z,8.55
2019-03-05T17:48:47.430Z,17.98
2019-03-05T17:53:55.212Z,9.18
2019-03-05T17:59:02.936Z,10.42
2019-03-05T18:04:10.684Z,9.68
2019-03-05T18:09:18.352Z,9.82
2019-03-05T18:14:26.077Z,7.56
2019-03-05T18:19:33.762Z,8.47
2019-03-05T18:24:41.470Z,10.12
2019-03-05T18:29:49.133Z,6.57
2019-03-05T18:34:56.812Z,6.80
2019-03-05T18:40:04.509Z,9.28
2019-03-05T18:45:12.245Z,7.55
2019-03-05T18:50:19.913Z,10.04
2019-03-05T18:55:27.581Z,8.64
2019-03-05T19:00:35.258Z,6.85
2019-03-05T19:05:42.953Z,8.96
2019-03-05T19:10:50.597Z,10.33
2019-03-05T19:15:58.287Z,14.04
2019-03-05T19:21:05.988Z,15.26
2019-03-05T19:26:13.670Z,21.47
2019-03-05T19:31:21.327Z,19.65
2019-03-05T19:36:28.993Z,18.20
2019-03-05T19:41:36.672Z,12.78
2019-03-05T19:47:37.450Z,12.52
2019-03-05T19:52:45.106Z,16.62
2019-03-05T19:57:52.716Z,13.14
2019-03-05T20:03:00.427Z,11.34
2019-03-05T20:08:08.044Z,11.99
2019-03-05T20:13:15.810Z,11.43
2019-03-05T20:18:23.445Z,11.49
2019-03-05T20:23:31.096Z,10.28
2019-03-05T20:28:38.789Z,12.63
2019-03-05T20:33:46.374Z,11.36
2019-03-05T20:38:53.990Z,12.45
2019-03-05T20:44:01.704Z,13.02
2019-03-05T20:49:09.332Z,12.11
2019-03-05T20:54:16.952Z,10.66
2019-03-05T20:59:24.663Z,9.41
2019-03-05T21:04:32.303Z,11.94
2019-03-05T21:09:39.965Z,9.79
2019-03-05T21:14:47.668Z,13.12
2019-03-05T21:19:55.353Z,11.78
2019-03-05T21:25:03.050Z,10.59
2019-03-05T21:30:10.744Z,9.94
2019-03-05T21:35:18.538Z,10.74
2019-03-05T21:40:26.232Z,8.76
2019-03-05T21:45:33.885Z,8.03
2019-03-05T21:50:41.560Z,9.48
2019-03-05T21:55:49.276Z,8.78
2019-03-05T22:00:56.949Z,9.94
2019-03-05T22:06:04.607Z,8.85
2019-03-05T22:11:12.285Z,8.67
2019-03-05T22:16:19.953Z,9.48
2019-03-05T22:21:27.616Z,10.18
2019-03-05T22:26:35.284Z,10.51
2019-03-05T22:31:42.979Z,9.02
2019-03-05T22:36:50.665Z,8.56
2019-03-05T22:41:58.336Z,9.43
2019-03-05T22:47:06.116Z,9.96
2019-03-05T22:52:13.785Z,7.45
2019-03-05T22:57:21.537Z,9.84
2019-03-05T23:02:29.237Z,10.61
2019-03-05T23:07:36.929Z,11.21
2019-03-05T23:12:44.837Z,10.03
2019-03-05T23:17:52.626Z,11.28
2019-03-05T23:23:00.352Z,14.92
2019-03-05T23:28:08.020Z,18.37
2019-03-05T23:33:15.711Z,15.66
2019-03-05T23:38:23.408Z,17.31
2019-03-05T23:43:31.082Z,16.62
2019-03-05T23:48:38.764Z,16.40
2019-03-05T23:53:46.461Z,19.33
2019-03-05T23:58:54.169Z,17.62
